EZY3YB EDDB-ESSA
Flight info
| Callsign | EZY3YB |
|---|---|
| Flight time | N/A |
| Altitude | 35000 |
| Route | GERGA3Z GERGA M725 RENKI Y89 USEDU DCT BANUB DCT POKEN DCT VIBAR Z227 NILUG |
| Aircraft | A21N/M-SDE2E3FGHIRWXY/LB1 |
Departure
| Time | N/A |
|---|---|
| Airport | Berlin Brandenburg Airport (EDDB) |
Arrival
| Time | 2026-05-05 08:19 |
|---|---|
| Airport | Stockholm-Arlanda Airport (ESSA) |
| Time | Latitude | Longitude | Altitude | Speed | Heading |
|---|---|---|---|---|---|
| 2026-05-05 08:06 | 59.21289 | 18.16557 | 11570 ft | 329 kts | 354° |
| 2026-05-05 08:06 | 59.23573 | 18.16822 | 11281 ft | 328 kts | 355° |
| 2026-05-05 08:06 | 59.25845 | 18.17087 | 11012 ft | 327 kts | 355° |
| 2026-05-05 08:06 | 59.28111 | 18.17352 | 10746 ft | 325 kts | 355° |
| 2026-05-05 08:07 | 59.30363 | 18.17621 | 10485 ft | 323 kts | 355° |
| 2026-05-05 08:07 | 59.32610 | 18.17885 | 10230 ft | 323 kts | 355° |
| 2026-05-05 08:07 | 59.34777 | 18.18151 | 10002 ft | 310 kts | 355° |
| 2026-05-05 08:07 | 59.36880 | 18.18410 | 9850 ft | 298 kts | 355° |
| 2026-05-05 08:08 | 59.38926 | 18.18637 | 9673 ft | 297 kts | 355° |
| 2026-05-05 08:08 | 59.40976 | 18.18872 | 9441 ft | 293 kts | 356° |
| 2026-05-05 08:08 | 59.42999 | 18.19118 | 9222 ft | 291 kts | 356° |
| 2026-05-05 08:08 | 59.45016 | 18.19359 | 8985 ft | 289 kts | 356° |
| 2026-05-05 08:09 | 59.47014 | 18.19598 | 8754 ft | 286 kts | 356° |
| 2026-05-05 08:09 | 59.48995 | 18.19831 | 8533 ft | 285 kts | 356° |
| 2026-05-05 08:09 | 59.50968 | 18.20066 | 8287 ft | 283 kts | 357° |
| 2026-05-05 08:09 | 59.52927 | 18.20312 | 8060 ft | 282 kts | 359° |
| 2026-05-05 08:10 | 59.54870 | 18.20937 | 7826 ft | 283 kts | 5° |
| 2026-05-05 08:10 | 59.56793 | 18.21667 | 7601 ft | 280 kts | 5° |
| 2026-05-05 08:10 | 59.58710 | 18.22352 | 7375 ft | 279 kts | 5° |
| 2026-05-05 08:10 | 59.60613 | 18.23027 | 7144 ft | 276 kts | 5° |
| 2026-05-05 08:11 | 59.62499 | 18.23718 | 6931 ft | 276 kts | 6° |
| 2026-05-05 08:11 | 59.64382 | 18.24411 | 6699 ft | 273 kts | 6° |
| 2026-05-05 08:11 | 59.66242 | 18.25088 | 6476 ft | 272 kts | 6° |
| 2026-05-05 08:11 | 59.68097 | 18.25764 | 6248 ft | 269 kts | 6° |
| 2026-05-05 08:12 | 59.69932 | 18.26437 | 6020 ft | 269 kts | 6° |
| 2026-05-05 08:12 | 59.71767 | 18.27110 | 5783 ft | 266 kts | 6° |
| 2026-05-05 08:12 | 59.73584 | 18.27776 | 5555 ft | 266 kts | 6° |
| 2026-05-05 08:12 | 59.75387 | 18.28438 | 5325 ft | 262 kts | 6° |
| 2026-05-05 08:13 | 59.77186 | 18.29099 | 5105 ft | 262 kts | 6° |
| 2026-05-05 08:13 | 59.78976 | 18.29756 | 4879 ft | 261 kts | 6° |
| 2026-05-05 08:13 | 59.80759 | 18.30398 | 4650 ft | 259 kts | 3° |
| 2026-05-05 08:13 | 59.82509 | 18.30171 | 4440 ft | 251 kts | 339° |
| 2026-05-05 08:14 | 59.84019 | 18.28576 | 4212 ft | 243 kts | 317° |
| 2026-05-05 08:14 | 59.85075 | 18.25983 | 3995 ft | 243 kts | 296° |
| 2026-05-05 08:14 | 59.85542 | 18.22784 | 3777 ft | 243 kts | 275° |
| 2026-05-05 08:14 | 59.85350 | 18.19464 | 3569 ft | 248 kts | 253° |
| 2026-05-05 08:15 | 59.84562 | 18.16426 | 3346 ft | 249 kts | 242° |
| 2026-05-05 08:15 | 59.83671 | 18.13479 | 3122 ft | 248 kts | 242° |
| 2026-05-05 08:15 | 59.82806 | 18.10503 | 2905 ft | 248 kts | 243° |
| 2026-05-05 08:15 | 59.81937 | 18.07533 | 2685 ft | 249 kts | 242° |
| 2026-05-05 08:16 | 59.81054 | 18.04598 | 2451 ft | 245 kts | 241° |
| 2026-05-05 08:16 | 59.79941 | 18.02084 | 2240 ft | 243 kts | 213° |
| 2026-05-05 08:16 | 59.78383 | 18.00895 | 2284 ft | 244 kts | 198° |
| 2026-05-05 08:16 | 59.76739 | 18.00206 | 2284 ft | 239 kts | 193° |
| 2026-05-05 08:17 | 59.75089 | 17.99612 | 2221 ft | 242 kts | 193° |
| 2026-05-05 08:17 | 59.73437 | 17.99005 | 1866 ft | 240 kts | 194° |
| 2026-05-05 08:17 | 59.72357 | 17.98610 | 1661 ft | 238 kts | 193° |
| 2026-05-05 08:17 | 59.70740 | 17.98021 | 1319 ft | 235 kts | 193° |
| 2026-05-05 08:18 | 59.69159 | 17.97454 | 1131 ft | 220 kts | 193° |
| 2026-05-05 08:18 | 59.67750 | 17.96932 | 745 ft | 194 kts | 194° |
| 2026-05-05 08:18 | 59.66498 | 17.96469 | 477 ft | 173 kts | 193° |
| 2026-05-05 08:18 | 59.65369 | 17.96068 | 253 ft | 157 kts | 194° |
| 2026-05-05 08:19 | 59.64380 | 17.95678 | 145 ft | 115 kts | 192° |
| 2026-05-05 08:19 | 59.63870 | 17.95496 | 145 ft | 39 kts | 192° |
| 2026-05-05 08:19 | 59.63662 | 17.95430 | 145 ft | 27 kts | 192° |
| 2026-05-05 08:19 | 59.63486 | 17.95335 | 145 ft | 25 kts | 199° |